Time,TemperatureF,DewpointF,PressureIn,WindDirection,WindDirectionDegrees,WindSpeedMPH,WindSpeedGustMPH,Humidity,HourlyPrecipIn,Conditions,Clouds,dailyrainin,SoftwareType,DateUTC
2013-04-15 00:03:00,56.0,53.0,29.96,North,5,0.0,0.0,90,0.03,,,0.03,,2013-04-15 04:03:00,
2013-04-15 00:13:00,56.0,53.0,29.96,North,5,0.0,0.0,90,0.03,,,0.03,,2013-04-15 04:13:00,
2013-04-15 00:23:00,56.0,53.0,29.94,North,5,0.0,0.0,91,0.02,,,0.03,,2013-04-15 04:23:00,
2013-04-15 00:33:00,55.0,53.0,29.94,North,5,0.0,0.0,92,0.02,,,0.04,,2013-04-15 04:33:00,
2013-04-15 00:43:00,55.0,53.0,29.94,North,5,0.0,0.0,92,0.02,,,0.04,,2013-04-15 04:43:00,
2013-04-15 00:53:00,55.0,53.0,29.94,North,5,0.0,1.0,92,0.02,,,0.04,,2013-04-15 04:53:00,
2013-04-15 01:03:00,55.0,53.0,29.93,North,5,0.0,0.0,92,0.01,,,0.04,,2013-04-15 05:03:00,
2013-04-15 01:13:00,55.0,53.0,29.93,North,5,0.0,0.0,92,0.01,,,0.04,,2013-04-15 05:13:00,
2013-04-15 01:23:00,55.0,53.0,29.93,North,5,0.0,2.0,93,0.04,,,0.07,,2013-04-15 05:23:00,
2013-04-15 01:33:00,55.0,53.0,29.93,North,5,0.0,1.0,93,0.04,,,0.08,,2013-04-15 05:33:00,
2013-04-15 01:42:00,55.0,53.0,29.93,North,5,0.0,1.0,93,0.04,,,0.08,,2013-04-15 05:42:00,
2013-04-15 01:53:00,55.0,53.0,29.93,North,5,0.0,1.0,93,0.06,,,0.10,,2013-04-15 05:53:00,
2013-04-15 02:02:00,55.0,53.0,29.93,North,5,0.0,1.0,94,0.08,,,0.12,,2013-04-15 06:02:00,
2013-04-15 02:12:00,55.0,53.0,29.93,North,5,0.0,1.0,94,0.08,,,0.12,,2013-04-15 06:12:00,
2013-04-15 02:23:00,55.0,53.0,29.93,North,5,0.0,2.0,94,0.06,,,0.13,,2013-04-15 06:23:00,
2013-04-15 02:33:00,55.0,54.0,29.93,North,5,0.0,1.0,95,0.05,,,0.14,,2013-04-15 06:33:00,
2013-04-15 02:42:00,55.0,54.0,29.93,North,5,0.0,1.0,95,0.05,,,0.14,,2013-04-15 06:42:00,
2013-04-15 02:53:00,55.0,54.0,29.93,North,5,0.0,2.0,95,0.04,,,0.14,,2013-04-15 06:53:00,
2013-04-15 03:03:00,55.0,54.0,29.92,North,5,0.0,2.0,95,0.03,,,0.15,,2013-04-15 07:03:00,
2013-04-15 03:42:00,54.0,53.0,29.92,North,5,0.0,0.0,95,0.05,,,0.18,,2013-04-15 07:42:00,
2013-04-15 03:43:00,55.0,54.0,29.92,North,5,0.0,0.0,95,0.04,,,0.18,,2013-04-15 07:43:00,
2013-04-15 04:03:00,55.0,54.0,29.91,North,5,0.0,0.0,95,0.05,,,0.20,,2013-04-15 08:03:00,
2013-04-15 04:13:00,55.0,54.0,29.91,North,5,0.0,0.0,95,0.05,,,0.20,,2013-04-15 08:13:00,
2013-04-15 04:22:00,55.0,54.0,29.92,North,5,0.0,0.0,96,0.03,,,0.21,,2013-04-15 08:22:00,
2013-04-15 04:34:00,55.0,54.0,29.91,North,5,0.0,0.0,96,0.04,,,0.22,,2013-04-15 08:34:00,
2013-04-15 04:43:00,55.0,54.0,29.91,North,5,0.0,0.0,96,0.04,,,0.22,,2013-04-15 08:43:00,
2013-04-15 04:52:00,55.0,54.0,29.91,North,5,0.0,0.0,96,0.02,,,0.22,,2013-04-15 08:52:00,
2013-04-15 05:03:00,55.0,54.0,29.92,North,5,0.0,0.0,96,0.03,,,0.23,,2013-04-15 09:03:00,
2013-04-15 05:12:00,55.0,54.0,29.92,North,5,0.0,0.0,96,0.03,,,0.23,,2013-04-15 09:12:00,
2013-04-15 05:23:00,55.0,54.0,29.93,North,5,0.0,0.0,96,0.04,,,0.25,,2013-04-15 09:23:00,
2013-04-15 05:33:00,55.0,54.0,29.93,North,5,0.0,1.0,96,0.04,,,0.26,,2013-04-15 09:33:00,
2013-04-15 05:43:00,55.0,54.0,29.93,North,5,0.0,1.0,96,0.04,,,0.26,,2013-04-15 09:43:00,
2013-04-15 05:53:00,55.0,54.0,29.93,North,5,0.0,0.0,96,0.06,,,0.28,,2013-04-15 09:53:00,
2013-04-15 06:03:00,55.0,54.0,29.93,North,5,0.0,0.0,96,0.05,,,0.28,,2013-04-15 10:03:00,
2013-04-15 06:13:00,55.0,54.0,29.93,North,5,0.0,0.0,96,0.05,,,0.28,,2013-04-15 10:13:00,
2013-04-15 06:23:00,55.0,54.0,29.94,North,5,0.0,0.0,96,0.04,,,0.28,,2013-04-15 10:23:00,
2013-04-15 06:33:00,55.0,54.0,29.94,North,5,0.0,0.0,96,0.04,,,0.30,,2013-04-15 10:33:00,
2013-04-15 06:42:00,55.0,54.0,29.94,North,5,0.0,0.0,96,0.04,,,0.30,,2013-04-15 10:42:00,
2013-04-15 06:53:00,55.0,54.0,29.94,North,5,0.0,0.0,96,0.04,,,0.30,,2013-04-15 10:53:00,
2013-04-15 07:03:00,55.0,54.0,29.94,North,5,0.0,0.0,96,0.04,,,0.30,,2013-04-15 11:03:00,
2013-04-15 07:13:00,55.0,54.0,29.94,North,5,0.0,0.0,96,0.04,,,0.30,,2013-04-15 11:13:00,
2013-04-15 09:05:00,56.0,55.0,29.98,North,5,0.0,1.0,97,0.00,,,0.30,,2013-04-15 13:05:00,
2013-04-15 09:13:00,56.0,55.0,29.98,North,5,0.0,1.0,97,0.00,,,0.30,,2013-04-15 13:13:00,
2013-04-15 09:23:00,56.0,55.0,29.99,North,5,0.0,1.0,97,0.00,,,0.30,,2013-04-15 13:23:00,
2013-04-15 09:34:00,56.0,55.0,29.99,North,5,0.0,2.0,97,0.00,,,0.30,,2013-04-15 13:34:00,
2013-04-15 09:43:00,56.0,55.0,29.99,North,5,0.0,2.0,97,0.00,,,0.30,,2013-04-15 13:43:00,
2013-04-15 09:53:00,56.0,55.0,29.99,North,5,0.0,2.0,97,0.00,,,0.30,,2013-04-15 13:53:00,
2013-04-15 10:05:00,57.0,56.0,30.00,North,5,0.0,2.0,97,0.00,,,0.30,,2013-04-15 14:05:00,
2013-04-15 10:13:00,57.0,56.0,30.00,North,5,0.0,2.0,97,0.00,,,0.30,,2013-04-15 14:13:00,
2013-04-15 10:23:00,57.0,56.0,30.00,North,5,0.0,2.0,97,0.00,,,0.30,,2013-04-15 14:23:00,
2013-04-15 10:34:00,57.0,56.0,30.01,North,5,0.0,2.0,97,0.00,,,0.30,,2013-04-15 14:34:00,
2013-04-15 10:44:00,57.0,56.0,30.01,North,5,0.0,2.0,97,0.00,,,0.30,,2013-04-15 14:44:00,
2013-04-15 10:54:00,58.0,57.0,30.01,North,5,0.0,3.0,96,0.00,,,0.30,,2013-04-15 14:54:00,
2013-04-15 11:04:00,58.0,57.0,30.01,North,5,1.0,4.0,96,0.00,,,0.30,,2013-04-15 15:04:00,
2013-04-15 11:13:00,58.0,57.0,30.01,North,5,1.0,4.0,96,0.00,,,0.30,,2013-04-15 15:13:00,
2013-04-15 11:24:00,58.0,57.0,30.01,North,5,0.0,3.0,95,0.00,,,0.30,,2013-04-15 15:24:00,
2013-04-15 11:36:00,59.0,57.0,30.01,North,5,2.0,6.0,94,0.00,,,0.30,,2013-04-15 15:36:00,
2013-04-15 11:44:00,59.0,57.0,30.01,North,5,2.0,6.0,94,0.00,,,0.30,,2013-04-15 15:44:00,
2013-04-15 11:54:00,59.0,57.0,30.02,North,5,0.0,3.0,92,0.00,,,0.30,,2013-04-15 15:54:00,
2013-04-15 12:05:00,60.0,58.0,30.02,North,5,1.0,3.0,92,0.00,,,0.30,,2013-04-15 16:05:00,
2013-04-15 12:14:00,60.0,58.0,30.02,North,5,1.0,3.0,92,0.00,,,0.30,,2013-04-15 16:14:00,
2013-04-15 12:25:00,60.0,57.0,30.03,North,5,1.0,6.0,90,0.00,,,0.30,,2013-04-15 16:25:00,
2013-04-15 12:34:00,60.0,57.0,30.03,North,5,1.0,5.0,90,0.00,,,0.30,,2013-04-15 16:34:00,
2013-04-15 12:44:00,60.0,57.0,30.03,North,5,1.0,5.0,90,0.00,,,0.30,,2013-04-15 16:44:00,
2013-04-15 12:53:00,60.0,57.0,30.03,North,5,1.0,4.0,89,0.00,,,0.30,,2013-04-15 16:53:00,
2013-04-15 13:04:00,62.0,58.0,30.03,North,5,1.0,6.0,88,0.00,,,0.30,,2013-04-15 17:04:00,
2013-04-15 13:15:00,62.0,58.0,30.03,North,5,1.0,6.0,88,0.00,,,0.30,,2013-04-15 17:15:00,
2013-04-15 13:22:00,63.0,58.0,30.03,North,5,1.0,3.0,84,0.00,,,0.30,,2013-04-15 17:22:00,
2013-04-15 13:33:00,64.0,59.0,30.03,North,5,3.0,7.0,83,0.00,,,0.30,,2013-04-15 17:33:00,
2013-04-15 13:43:00,64.0,59.0,30.03,North,5,3.0,7.0,83,0.00,,,0.30,,2013-04-15 17:43:00,
2013-04-15 13:52:00,64.0,58.0,30.02,North,5,3.0,9.0,81,0.00,,,0.30,,2013-04-15 17:52:00,
2013-04-15 14:04:00,65.0,59.0,30.03,North,5,1.0,9.0,80,0.00,,,0.30,,2013-04-15 18:04:00,
2013-04-15 14:13:00,65.0,59.0,30.03,North,5,1.0,9.0,80,0.00,,,0.30,,2013-04-15 18:13:00,
2013-04-15 14:24:00,65.0,59.0,30.03,North,5,1.0,5.0,81,0.00,,,0.30,,2013-04-15 18:24:00,
2013-04-15 14:33:00,65.0,59.0,30.03,North,5,1.0,5.0,80,0.00,,,0.30,,2013-04-15 18:33:00,
2013-04-15 14:42:00,65.0,59.0,30.03,North,5,1.0,5.0,80,0.00,,,0.30,,2013-04-15 18:42:00,
2013-04-15 14:52:00,65.0,58.0,30.03,North,5,1.0,5.0,79,0.00,,,0.30,,2013-04-15 18:52:00,
2013-04-15 15:02:00,65.0,57.0,30.03,North,5,1.0,4.0,76,0.00,,,0.30,,2013-04-15 19:02:00,
2013-04-15 15:12:00,65.0,57.0,30.03,North,5,1.0,4.0,76,0.00,,,0.30,,2013-04-15 19:12:00,
2013-04-15 15:22:00,67.0,59.0,30.03,North,5,2.0,6.0,75,0.00,,,0.30,,2013-04-15 19:22:00,
2013-04-15 15:38:00,67.0,58.0,30.03,North,5,2.0,5.0,72,0.00,,,0.30,,2013-04-15 19:38:00,
2013-04-15 15:56:00,67.0,58.0,30.03,North,5,2.0,5.0,72,0.00,,,0.30,,2013-04-15 19:56:00,
2013-04-15 15:59:00,68.0,59.0,30.03,North,5,1.0,5.0,72,0.00,,,0.30,,2013-04-15 19:59:00,
2013-04-15 16:02:00,68.0,59.0,30.03,North,5,1.0,4.0,73,0.00,,,0.30,,2013-04-15 20:02:00,
2013-04-15 16:12:00,68.0,59.0,30.03,North,5,1.0,4.0,73,0.00,,,0.30,,2013-04-15 20:12:00,
2013-04-15 16:22:00,67.0,58.0,30.03,North,5,0.0,7.0,73,0.00,,,0.30,,2013-04-15 20:22:00,
2013-04-15 16:32:00,67.0,58.0,30.03,North,5,0.0,4.0,73,0.00,,,0.30,,2013-04-15 20:32:00,
2013-04-15 16:42:00,67.0,58.0,30.03,North,5,0.0,4.0,73,0.00,,,0.30,,2013-04-15 20:42:00,
2013-04-15 16:52:00,67.0,58.0,30.03,North,5,1.0,5.0,72,0.00,,,0.30,,2013-04-15 20:52:00,
2013-04-15 17:02:00,68.0,58.0,30.03,North,5,2.0,4.0,71,0.00,,,0.30,,2013-04-15 21:02:00,
2013-04-15 17:12:00,68.0,58.0,30.03,North,5,2.0,4.0,71,0.00,,,0.30,,2013-04-15 21:12:00,
2013-04-15 17:22:00,68.0,58.0,30.03,North,5,1.0,7.0,71,0.00,,,0.30,,2013-04-15 21:22:00,
2013-04-15 17:33:00,68.0,57.0,30.03,North,5,0.0,4.0,68,0.00,,,0.30,,2013-04-15 21:33:00,
2013-04-15 17:43:00,68.0,57.0,30.03,North,5,0.0,4.0,68,0.00,,,0.30,,2013-04-15 21:43:00,
2013-04-15 17:53:00,69.0,58.0,30.02,North,5,2.0,4.0,69,0.00,,,0.30,,2013-04-15 21:53:00,
2013-04-15 18:02:00,69.0,58.0,30.03,North,5,0.0,3.0,67,0.00,,,0.30,,2013-04-15 22:02:00,
2013-04-15 18:13:00,69.0,58.0,30.03,North,5,0.0,3.0,67,0.00,,,0.30,,2013-04-15 22:13:00,
2013-04-15 18:23:00,69.0,58.0,30.03,North,5,0.0,4.0,67,0.00,,,0.30,,2013-04-15 22:23:00,
2013-04-15 18:33:00,69.0,58.0,30.03,North,5,0.0,3.0,68,0.00,,,0.30,,2013-04-15 22:33:00,
2013-04-15 18:42:00,69.0,58.0,30.03,North,5,0.0,3.0,68,0.00,,,0.30,,2013-04-15 22:42:00,
2013-04-15 18:52:00,69.0,58.0,30.04,North,5,0.0,3.0,69,0.00,,,0.30,,2013-04-15 22:52:00,
2013-04-15 19:02:00,68.0,57.0,30.04,North,5,0.0,2.0,69,0.00,,,0.30,,2013-04-15 23:02:00,
2013-04-15 19:12:00,68.0,57.0,30.04,North,5,0.0,2.0,69,0.00,,,0.30,,2013-04-15 23:12:00,
2013-04-15 19:22:00,68.0,58.0,30.04,North,5,0.0,4.0,71,0.00,,,0.30,,2013-04-15 23:22:00,
2013-04-15 19:32:00,68.0,59.0,30.05,North,5,0.0,3.0,73,0.00,,,0.30,,2013-04-15 23:32:00,
2013-04-15 19:42:00,68.0,59.0,30.05,North,5,0.0,3.0,73,0.00,,,0.30,,2013-04-15 23:42:00,
2013-04-15 19:52:00,67.0,59.0,30.05,North,5,0.0,1.0,75,0.00,,,0.30,,2013-04-15 23:52:00,
2013-04-15 20:03:00,66.0,59.0,30.06,North,5,0.0,2.0,77,0.00,,,0.30,,2013-04-16 00:03:00,
2013-04-15 20:12:00,66.0,59.0,30.06,North,5,0.0,2.0,77,0.00,,,0.30,,2013-04-16 00:12:00,
2013-04-15 20:22:00,66.0,59.0,30.06,North,5,0.0,3.0,78,0.00,,,0.30,,2013-04-16 00:22:00,
2013-04-15 20:32:00,65.0,58.0,30.07,North,5,0.0,1.0,79,0.00,,,0.30,,2013-04-16 00:32:00,
2013-04-15 20:42:00,65.0,58.0,30.07,North,5,0.0,1.0,79,0.00,,,0.30,,2013-04-16 00:42:00,
2013-04-15 20:52:00,65.0,59.0,30.08,North,5,0.0,2.0,81,0.00,,,0.30,,2013-04-16 00:52:00,
2013-04-15 21:02:00,64.0,59.0,30.09,North,5,0.0,2.0,83,0.00,,,0.30,,2013-04-16 01:02:00,
2013-04-15 21:12:00,64.0,59.0,30.09,North,5,0.0,2.0,83,0.00,,,0.30,,2013-04-16 01:12:00,
2013-04-15 21:22:00,64.0,58.0,30.09,North,5,0.0,3.0,82,0.00,,,0.30,,2013-04-16 01:22:00,
2013-04-15 21:32:00,63.0,58.0,30.10,North,5,0.0,3.0,83,0.00,,,0.30,,2013-04-16 01:32:00,
2013-04-15 21:42:00,63.0,58.0,30.10,North,5,0.0,3.0,83,0.00,,,0.30,,2013-04-16 01:42:00,
2013-04-15 21:52:00,63.0,58.0,30.11,North,5,0.0,3.0,83,0.00,,,0.30,,2013-04-16 01:52:00,
2013-04-15 22:02:00,63.0,58.0,30.11,North,5,0.0,1.0,83,0.00,,,0.30,,2013-04-16 02:02:00,
2013-04-15 22:12:00,63.0,58.0,30.11,North,5,0.0,1.0,83,0.00,,,0.30,,2013-04-16 02:12:00,
2013-04-15 22:22:00,62.0,57.0,30.11,North,5,0.0,2.0,84,0.00,,,0.30,,2013-04-16 02:22:00,
2013-04-15 22:32:00,62.0,57.0,30.12,North,5,0.0,3.0,84,0.00,,,0.30,,2013-04-16 02:32:00,
2013-04-15 22:42:00,62.0,57.0,30.12,North,5,0.0,3.0,84,0.00,,,0.30,,2013-04-16 02:42:00,
2013-04-15 22:52:00,62.0,57.0,30.12,North,5,0.0,2.0,85,0.00,,,0.30,,2013-04-16 02:52:00,
2013-04-15 23:02:00,62.0,58.0,30.13,North,5,0.0,0.0,86,0.00,,,0.30,,2013-04-16 03:02:00,
2013-04-15 23:12:00,62.0,58.0,30.13,North,5,0.0,0.0,86,0.00,,,0.30,,2013-04-16 03:12:00,
2013-04-15 23:22:00,62.0,57.0,30.14,North,5,0.0,2.0,85,0.00,,,0.30,,2013-04-16 03:22:00,
2013-04-15 23:33:00,61.0,57.0,30.14,North,5,0.0,1.0,86,0.00,,,0.30,,2013-04-16 03:33:00,
2013-04-15 23:43:00,61.0,57.0,30.14,North,5,0.0,1.0,86,0.00,,,0.30,,2013-04-16 03:43:00,
2013-04-15 23:52:00,61.0,56.0,30.14,North,5,0.0,2.0,85,0.00,,,0.30,,2013-04-16 03:52:00,